createdAt,value
2019-04-05T00:00:27.469Z,11.73
2019-04-05T00:02:59.560Z,11.70
2019-04-05T00:05:31.312Z,11.77
2019-04-05T00:08:03.126Z,11.88
2019-04-05T00:10:35.073Z,11.91
2019-04-05T00:13:06.677Z,11.98
2019-04-05T00:15:38.545Z,11.87
2019-04-05T00:18:10.101Z,11.78
2019-04-05T00:20:41.860Z,11.78
2019-04-05T00:23:13.981Z,11.81
2019-04-05T00:25:45.706Z,11.73
2019-04-05T00:28:17.662Z,11.67
2019-04-05T00:30:49.244Z,11.69
2019-04-05T00:33:20.598Z,11.66
2019-04-05T00:35:52.371Z,11.71
2019-04-05T00:38:24.148Z,11.57
2019-04-05T00:40:56.015Z,11.60
2019-04-05T00:43:28.952Z,11.51
2019-04-05T00:46:00.647Z,11.48
2019-04-05T00:48:32.290Z,11.50
2019-04-05T00:51:03.881Z,11.46
2019-04-05T00:53:35.667Z,11.16
2019-04-05T00:56:07.299Z,11.19
2019-04-05T00:58:38.971Z,11.23
2019-04-05T01:01:10.701Z,11.29
2019-04-05T01:03:42.504Z,11.11
2019-04-05T01:06:14.636Z,11.14
2019-04-05T01:08:46.167Z,11.18
2019-04-05T01:11:18.020Z,11.01
2019-04-05T01:13:50.367Z,11.03
2019-04-05T01:16:21.969Z,10.95
2019-04-05T01:18:53.796Z,10.99
2019-04-05T01:21:27.991Z,10.93
2019-04-05T01:24:02.461Z,10.96
2019-04-05T01:26:35.402Z,10.93
2019-04-05T01:29:07.129Z,10.80
2019-04-05T01:31:38.544Z,10.80
2019-04-05T01:34:10.569Z,10.76
2019-04-05T01:36:42.087Z,10.75
2019-04-05T01:39:13.966Z,10.77
2019-04-05T01:41:46.502Z,10.74
2019-04-05T01:44:18.602Z,10.68
2019-04-05T01:46:50.245Z,10.62
2019-04-05T01:49:22.030Z,10.53
2019-04-05T01:51:53.972Z,10.38
2019-04-05T01:54:25.739Z,10.29
2019-04-05T01:56:57.416Z,10.30
2019-04-05T01:59:28.901Z,10.24
2019-04-05T02:02:00.480Z,10.32
2019-04-05T02:04:33.198Z,10.20
2019-04-05T02:07:04.877Z,10.14
2019-04-05T02:09:37.330Z,10.23
2019-04-05T02:12:09.401Z,10.34
2019-04-05T02:14:41.111Z,10.19
2019-04-05T02:17:12.831Z,10.22
2019-04-05T02:19:45.703Z,10.22
2019-04-05T02:22:17.297Z,10.12
2019-04-05T02:24:50.815Z,9.96
2019-04-05T02:27:22.414Z,10.01
2019-04-05T02:29:53.902Z,10.03
2019-04-05T02:32:25.731Z,10.09
2019-04-05T02:34:57.201Z,9.84
2019-04-05T02:37:29.102Z,9.95
2019-04-05T02:40:01.141Z,9.82
2019-04-05T02:42:34.882Z,9.79
2019-04-05T02:45:08.188Z,9.79
2019-04-05T02:47:42.370Z,9.72
2019-04-05T02:50:15.304Z,9.89
2019-04-05T02:52:48.279Z,9.86
2019-04-05T02:55:20.458Z,9.86
2019-04-05T02:57:52.463Z,9.77
2019-04-05T03:00:24.474Z,9.71
2019-04-05T03:02:59.126Z,9.72
2019-04-05T03:05:31.526Z,9.83
2019-04-05T03:08:03.153Z,9.96
2019-04-05T03:11:07.890Z,9.75
2019-04-05T03:13:46.690Z,9.75
2019-04-05T03:16:38.605Z,9.59
2019-04-05T03:18:59.329Z,9.54
2019-04-05T03:21:32.324Z,9.53
2019-04-05T03:24:05.284Z,9.52
2019-04-05T03:26:39.517Z,9.48
2019-04-05T03:29:11.092Z,9.27
2019-04-05T03:31:41.553Z,9.09
2019-04-05T03:34:12.864Z,9.12
2019-04-05T03:36:43.396Z,9.24
2019-04-05T03:39:15.459Z,9.16
2019-04-05T03:41:47.211Z,9.03
2019-04-05T03:44:22.842Z,9.16
2019-04-05T03:46:56.851Z,9.13
2019-04-05T03:49:28.153Z,8.96
2019-04-05T03:51:59.432Z,9.07
2019-04-05T03:54:31.398Z,8.81
2019-04-05T03:57:03.145Z,8.93
2019-04-05T03:59:35.466Z,8.90
2019-04-05T04:02:07.457Z,8.91
2019-04-05T04:04:39.138Z,8.81
2019-04-05T04:07:11.232Z,8.69
2019-04-05T04:09:42.970Z,8.74
2019-04-05T04:12:15.671Z,8.51
2019-04-05T04:14:47.229Z,8.72
2019-04-05T04:17:19.164Z,8.58
2019-04-05T04:19:51.992Z,8.75
2019-04-05T04:22:29.939Z,8.74
2019-04-05T04:25:01.688Z,8.67
2019-04-05T04:27:33.780Z,8.61
2019-04-05T04:30:05.786Z,8.83
2019-04-05T04:32:37.656Z,8.83
2019-04-05T04:35:09.294Z,8.69
2019-04-05T04:37:41.274Z,8.75
2019-04-05T04:40:12.826Z,8.69
2019-04-05T04:42:44.548Z,8.85
2019-04-05T04:45:17.343Z,8.79
2019-04-05T04:47:49.201Z,8.75
2019-04-05T04:50:21.526Z,8.79
2019-04-05T04:52:53.675Z,8.86
2019-04-05T04:55:26.700Z,9.04
2019-04-05T04:57:58.425Z,8.92
2019-04-05T05:00:30.068Z,8.84
2019-04-05T05:03:01.661Z,8.95
2019-04-05T05:05:33.133Z,9.06
2019-04-05T05:08:05.419Z,9.08
2019-04-05T05:10:37.189Z,8.94
2019-04-05T05:13:09.030Z,9.42
2019-04-05T05:15:40.918Z,9.63
2019-04-05T05:18:12.827Z,9.61
2019-04-05T05:20:44.561Z,9.72
2019-04-05T05:23:16.501Z,9.90
2019-04-05T05:25:48.214Z,9.96
2019-04-05T05:28:20.208Z,10.31
2019-04-05T05:30:52.403Z,10.42
2019-04-05T05:33:24.150Z,10.30
2019-04-05T05:35:56.134Z,11.24
2019-04-05T05:38:28.128Z,10.96
2019-04-05T05:40:59.727Z,10.49
2019-04-05T05:43:31.400Z,10.50
2019-04-05T05:46:03.113Z,10.45
2019-04-05T05:48:35.725Z,10.75
2019-04-05T05:51:07.234Z,10.84
2019-04-05T05:53:39.344Z,10.61
2019-04-05T05:56:11.699Z,10.72
2019-04-05T05:58:45.933Z,10.82
2019-04-05T06:01:17.475Z,11.00
2019-04-05T06:03:49.321Z,10.96
2019-04-05T06:06:20.872Z,11.06
2019-04-05T06:08:52.456Z,11.07
2019-04-05T06:11:24.109Z,11.35
2019-04-05T06:13:55.895Z,11.37
2019-04-05T06:16:27.586Z,11.30
2019-04-05T06:18:59.336Z,11.48
2019-04-05T06:21:32.430Z,11.47
2019-04-05T06:24:05.342Z,11.59
2019-04-05T06:26:37.081Z,11.41
2019-04-05T06:29:08.567Z,11.85
2019-04-05T06:31:40.128Z,12.01
2019-04-05T06:34:11.817Z,12.14
2019-04-05T06:36:43.424Z,12.42
2019-04-05T06:39:15.047Z,12.62
2019-04-05T06:41:47.816Z,13.11
2019-04-05T06:44:19.317Z,14.70
2019-04-05T06:46:51.188Z,14.87
2019-04-05T06:49:23.632Z,15.82
2019-04-05T06:51:54.961Z,15.40
2019-04-05T06:54:26.367Z,15.97
2019-04-05T06:56:57.876Z,17.05
2019-04-05T06:59:29.477Z,17.25
2019-04-05T07:02:01.310Z,17.55
2019-04-05T07:04:33.072Z,18.72
2019-04-05T07:07:04.768Z,18.53
2019-04-05T07:09:36.257Z,18.65
2019-04-05T07:12:08.162Z,18.84
2019-04-05T07:14:39.904Z,19.70
2019-04-05T07:17:11.522Z,18.96
2019-04-05T07:19:44.265Z,17.88
2019-04-05T07:22:16.023Z,15.61
2019-04-05T07:24:49.547Z,14.90
2019-04-05T07:27:21.180Z,14.63
2019-04-05T07:29:52.895Z,14.38
2019-04-05T07:32:24.684Z,14.28
2019-04-05T07:34:56.276Z,14.27
2019-04-05T07:37:27.856Z,15.60
2019-04-05T07:39:59.421Z,17.81
2019-04-05T07:42:31.086Z,17.53
2019-04-05T07:45:02.785Z,18.03
2019-04-05T07:47:35.478Z,16.88
2019-04-05T07:50:07.472Z,16.88
2019-04-05T07:52:39.194Z,18.44
2019-04-05T07:55:11.000Z,18.94
2019-04-05T07:57:42.612Z,19.57
2019-04-05T08:00:41.197Z,18.21
2019-04-05T08:03:12.862Z,16.07
2019-04-05T08:05:44.564Z,15.25
2019-04-05T08:08:38.049Z,14.83
2019-04-05T08:11:10.352Z,14.61
2019-04-05T08:13:44.668Z,14.34
2019-04-05T08:16:16.477Z,14.58
2019-04-05T08:18:57.544Z,14.77
2019-04-05T08:21:21.648Z,14.57
2019-04-05T08:23:53.591Z,14.73
2019-04-05T08:26:25.243Z,14.75
2019-04-05T08:28:56.871Z,14.58
2019-04-05T08:31:28.594Z,14.96
2019-04-05T08:34:00.324Z,15.46
2019-04-05T08:36:32.777Z,16.08
2019-04-05T08:39:06.695Z,15.97
2019-04-05T08:41:38.411Z,17.12
2019-04-05T08:44:10.140Z,18.74
2019-04-05T08:46:42.047Z,19.48
2019-04-05T08:49:13.720Z,20.29
2019-04-05T08:51:45.412Z,20.13
2019-04-05T08:54:17.480Z,19.31
2019-04-05T08:56:49.149Z,19.53
2019-04-05T08:59:20.783Z,18.40
2019-04-05T09:01:52.219Z,17.53
2019-04-05T09:04:23.879Z,17.10
2019-04-05T09:06:55.410Z,16.83
2019-04-05T09:09:26.827Z,16.77
2019-04-05T09:11:58.572Z,16.66
2019-04-05T09:14:30.106Z,16.69
2019-04-05T09:17:01.845Z,16.61
2019-04-05T09:19:33.455Z,16.57
2019-04-05T09:22:06.170Z,16.71
2019-04-05T09:24:38.227Z,16.90
2019-04-05T09:27:09.815Z,16.94
2019-04-05T09:29:41.595Z,17.20
2019-04-05T09:32:13.152Z,17.40
2019-04-05T09:34:45.384Z,18.20
2019-04-05T09:37:17.165Z,19.06
2019-04-05T09:39:49.315Z,19.41
2019-04-05T09:42:21.011Z,20.44
2019-04-05T09:44:53.988Z,20.30
2019-04-05T09:47:25.395Z,19.98
2019-04-05T09:49:57.530Z,18.96
2019-04-05T09:52:29.193Z,18.79
2019-04-05T09:55:00.521Z,18.46
2019-04-05T09:57:32.521Z,18.68
2019-04-05T10:00:05.334Z,18.34
2019-04-05T10:02:38.127Z,18.55
2019-04-05T10:05:09.846Z,18.75
2019-04-05T10:07:54.109Z,18.75
2019-04-05T10:10:17.062Z,18.61
2019-04-05T10:12:48.772Z,18.39
2019-04-05T10:15:21.863Z,18.50
2019-04-05T10:17:54.088Z,18.51
2019-04-05T10:20:25.722Z,18.30
2019-04-05T10:22:57.508Z,18.38
2019-04-05T10:25:29.152Z,18.22
2019-04-05T10:28:03.374Z,18.52
2019-04-05T10:30:36.274Z,18.45
2019-04-05T10:33:08.135Z,18.40
2019-04-05T10:35:39.635Z,18.40
2019-04-05T10:38:11.252Z,17.94
2019-04-05T10:40:43.037Z,17.85
2019-04-05T10:43:14.932Z,18.01
2019-04-05T10:45:46.482Z,18.13
2019-04-05T10:48:18.355Z,17.94
2019-04-05T10:50:49.978Z,17.98
2019-04-05T10:53:21.407Z,17.98
2019-04-05T10:55:54.044Z,17.88
2019-04-05T10:58:25.688Z,17.89
2019-04-05T11:00:58.606Z,18.01
2019-04-05T11:03:30.578Z,17.87
2019-04-05T11:06:02.316Z,17.78
2019-04-05T11:08:33.887Z,17.85
2019-04-05T11:11:05.420Z,17.94
2019-04-05T11:13:37.104Z,18.09
2019-04-05T11:16:08.574Z,18.07
2019-04-05T11:18:40.235Z,18.08
2019-04-05T11:21:11.807Z,18.07
2019-04-05T11:23:44.038Z,18.14
2019-04-05T11:26:15.605Z,18.25
2019-04-05T11:28:47.488Z,18.38
2019-04-05T11:31:19.346Z,18.65
2019-04-05T11:33:51.343Z,19.15
2019-04-05T11:36:24.246Z,19.72
2019-04-05T11:38:55.927Z,19.96
2019-04-05T11:41:28.536Z,21.04
2019-04-05T11:47:37.496Z,21.23
2019-04-05T11:50:11.973Z,21.18
2019-04-05T11:52:43.654Z,21.68
2019-04-05T11:55:18.171Z,20.85
2019-04-05T11:57:48.381Z,21.12
2019-04-05T12:00:31.850Z,21.49
2019-04-05T12:03:05.631Z,21.75
2019-04-05T12:05:37.249Z,21.26
2019-04-05T12:08:09.070Z,21.07
2019-04-05T12:10:40.718Z,21.16
2019-04-05T12:13:12.282Z,21.11
2019-04-05T12:15:43.847Z,20.94
2019-04-05T12:18:19.175Z,20.82
2019-04-05T12:20:59.006Z,20.70
2019-04-05T12:23:22.264Z,20.50
2019-04-05T12:25:54.618Z,20.30
2019-04-05T12:28:26.372Z,20.20
2019-04-05T12:30:58.040Z,20.17
2019-04-05T12:33:29.466Z,20.34
2019-04-05T12:36:01.141Z,20.30
2019-04-05T12:38:34.001Z,20.41
2019-04-05T12:41:06.176Z,20.40
2019-04-05T12:43:37.719Z,20.34
2019-04-05T12:46:09.488Z,20.42
2019-04-05T12:48:41.161Z,20.53
2019-04-05T12:51:15.450Z,20.61
2019-04-05T12:53:46.710Z,20.65
2019-04-05T12:56:18.472Z,20.65
2019-04-05T12:58:53.682Z,20.59
2019-04-05T13:01:25.657Z,20.66
2019-04-05T13:03:58.814Z,20.85
2019-04-05T13:06:31.569Z,21.18
2019-04-05T13:09:05.602Z,21.57
2019-04-05T13:11:36.798Z,21.81
2019-04-05T13:14:08.374Z,21.96
2019-04-05T13:16:40.266Z,22.18
2019-04-05T13:19:11.778Z,22.51
2019-04-05T13:21:43.737Z,23.47
2019-04-05T13:24:15.356Z,23.78
2019-04-05T13:26:49.065Z,23.55
2019-04-05T13:29:20.734Z,23.72
2019-04-05T13:31:52.469Z,24.11
2019-04-05T13:34:25.880Z,24.12
2019-04-05T13:36:59.336Z,24.00
2019-04-05T13:39:30.859Z,23.99
2019-04-05T13:42:02.659Z,24.04
2019-04-05T13:44:34.976Z,23.72
2019-04-05T13:47:08.470Z,23.97
2019-04-05T13:49:40.650Z,24.51
2019-04-05T13:52:13.321Z,23.83
2019-04-05T13:54:48.300Z,23.37
2019-04-05T13:57:19.713Z,22.72
2019-04-05T13:59:51.511Z,22.61
2019-04-05T14:02:24.633Z,22.15
2019-04-05T14:04:56.432Z,21.79
2019-04-05T14:07:27.829Z,21.77
2019-04-05T14:09:59.747Z,21.37
2019-04-05T14:12:31.492Z,21.47
2019-04-05T14:15:03.143Z,21.39
2019-04-05T14:17:34.717Z,21.32
2019-04-05T14:20:09.110Z,21.27
2019-04-05T14:22:40.586Z,21.21
2019-04-05T14:25:12.852Z,21.11
2019-04-05T14:27:44.311Z,20.96
2019-04-05T14:30:16.157Z,20.92
2019-04-05T14:32:50.854Z,20.81
2019-04-05T14:35:24.448Z,20.74
2019-04-05T14:37:55.257Z,20.72
2019-04-05T14:40:29.373Z,20.65
2019-04-05T14:43:00.785Z,20.55
2019-04-05T14:45:32.427Z,20.58
2019-04-05T14:48:04.549Z,20.58
2019-04-05T14:50:36.305Z,20.59
2019-04-05T14:53:07.854Z,20.48
2019-04-05T14:55:39.614Z,20.51
2019-04-05T14:58:11.267Z,20.50
2019-04-05T15:00:44.447Z,20.49
2019-04-05T15:03:16.166Z,20.46
2019-04-05T15:05:47.658Z,20.50
2019-04-05T15:08:20.665Z,20.52
2019-04-05T15:10:56.546Z,20.43
2019-04-05T15:13:25.967Z,20.33
2019-04-05T15:15:57.687Z,20.21
2019-04-05T15:18:29.398Z,20.15
2019-04-05T15:21:01.363Z,20.06
2019-04-05T15:23:33.965Z,20.00
2019-04-05T15:26:06.169Z,19.99
2019-04-05T15:28:39.086Z,20.02
2019-04-05T15:31:10.787Z,19.99
2019-04-05T15:33:42.697Z,19.98
2019-04-05T15:36:14.450Z,19.96
2019-04-05T15:38:46.340Z,19.94
2019-04-05T15:41:18.045Z,19.93
2019-04-05T15:43:49.916Z,19.88
2019-04-05T15:46:21.502Z,19.87
2019-04-05T15:48:53.133Z,19.78
2019-04-05T15:51:25.142Z,19.78
2019-04-05T15:53:56.945Z,19.73
2019-04-05T15:56:28.543Z,19.68
2019-04-05T15:59:03.643Z,19.66
2019-04-05T16:01:34.251Z,19.64
2019-04-05T16:04:07.864Z,19.59
2019-04-05T16:06:39.575Z,19.51
2019-04-05T16:09:13.199Z,19.39
2019-04-05T16:11:44.924Z,19.34
2019-04-05T16:14:17.637Z,19.32
2019-04-05T16:16:49.532Z,19.28
2019-04-05T16:19:20.994Z,19.24
2019-04-05T16:21:52.746Z,19.25
2019-04-05T16:24:24.198Z,19.20
2019-04-05T16:26:55.954Z,19.14
2019-04-05T16:29:27.597Z,19.06
2019-04-05T16:31:59.212Z,18.99
2019-04-05T16:34:30.792Z,19.01
2019-04-05T16:37:02.469Z,18.96
2019-04-05T16:39:34.193Z,18.88
2019-04-05T16:42:05.865Z,18.86
2019-04-05T16:44:38.834Z,18.82
2019-04-05T16:47:10.499Z,18.78
2019-04-05T16:49:42.196Z,18.72
2019-04-05T16:52:13.812Z,18.65
2019-04-05T16:54:45.665Z,18.54
2019-04-05T16:57:17.479Z,18.52
2019-04-05T16:59:49.322Z,18.48
2019-04-05T17:02:20.927Z,18.43
2019-04-05T17:04:52.547Z,18.37
2019-04-05T17:07:24.283Z,18.30
2019-04-05T17:09:56.131Z,18.27
2019-04-05T17:12:27.738Z,18.22
2019-04-05T17:14:59.322Z,18.19
2019-04-05T17:17:31.040Z,18.12
2019-04-05T17:20:02.716Z,18.06
2019-04-05T17:22:34.706Z,18.07
2019-04-05T17:25:07.377Z,17.98
2019-04-05T17:27:39.172Z,17.84
2019-04-05T17:30:11.359Z,17.73
2019-04-05T17:32:43.293Z,17.66
2019-04-05T17:35:15.116Z,17.58
2019-04-05T17:37:46.741Z,17.50
2019-04-05T17:40:18.459Z,17.43
2019-04-05T17:42:50.102Z,17.41
2019-04-05T17:45:21.904Z,17.47
2019-04-05T17:47:53.736Z,17.48
2019-04-05T17:50:40.797Z,17.45
2019-04-05T17:53:13.518Z,17.39
2019-04-05T17:55:45.792Z,17.28
2019-04-05T17:58:18.990Z,17.25
2019-04-05T18:00:50.923Z,17.21
2019-04-05T18:03:22.527Z,17.18
2019-04-05T18:05:54.040Z,17.10
2019-04-05T18:08:25.451Z,17.11
2019-04-05T18:10:56.953Z,16.92
2019-04-05T18:13:28.696Z,16.92
2019-04-05T18:16:00.426Z,16.93
2019-04-05T18:18:31.830Z,16.90
2019-04-05T18:21:03.887Z,16.81
2019-04-05T18:23:36.184Z,16.76
2019-04-05T18:26:07.651Z,16.75
2019-04-05T18:28:39.071Z,16.66
2019-04-05T18:31:11.030Z,16.59
2019-04-05T18:33:42.911Z,16.59
2019-04-05T18:36:14.485Z,16.48
2019-04-05T18:38:45.940Z,16.43
2019-04-05T18:41:17.333Z,16.43
2019-04-05T18:43:49.516Z,16.37
2019-04-05T18:46:21.272Z,16.28
2019-04-05T18:48:53.138Z,16.22
2019-04-05T18:51:25.680Z,16.15
2019-04-05T18:53:57.244Z,16.10
2019-04-05T18:56:28.837Z,16.04
2019-04-05T18:59:00.266Z,16.00
2019-04-05T19:01:31.991Z,15.90
2019-04-05T19:04:05.477Z,15.85
2019-04-05T19:06:37.185Z,15.81
2019-04-05T19:09:12.042Z,15.75
2019-04-05T19:11:43.767Z,15.69
2019-04-05T19:14:15.554Z,15.67
2019-04-05T19:16:47.246Z,15.64
2019-04-05T19:19:18.931Z,15.57
2019-04-05T19:21:51.174Z,15.50
2019-04-05T19:24:22.590Z,15.45
2019-04-05T19:26:54.495Z,15.41
2019-04-05T19:29:26.215Z,15.40
2019-04-05T19:49:52.137Z,15.09
2019-04-05T19:52:23.909Z,15.06
2019-04-05T19:54:55.526Z,15.03
2019-04-05T19:57:27.193Z,14.98
2019-04-05T19:59:59.077Z,14.97
2019-04-05T20:02:30.678Z,14.97
2019-04-05T20:05:02.877Z,14.96
2019-04-05T20:07:34.618Z,14.95
2019-04-05T20:10:06.831Z,14.85
2019-04-05T20:12:38.432Z,14.81
2019-04-05T20:15:11.038Z,14.75
2019-04-05T20:17:44.724Z,14.81
2019-04-05T20:20:16.502Z,14.78
2019-04-05T20:22:48.359Z,14.75
2019-04-05T20:25:19.766Z,14.73
2019-04-05T20:27:51.686Z,14.71
2019-04-05T20:30:23.393Z,14.63
2019-04-05T20:32:55.159Z,14.58
2019-04-05T20:35:26.741Z,14.55
2019-04-05T20:37:58.654Z,14.51
2019-04-05T20:40:30.623Z,14.49
2019-04-05T20:43:02.419Z,14.39
2019-04-05T20:45:34.128Z,14.40
2019-04-05T20:48:05.911Z,14.39
2019-04-05T20:50:37.653Z,14.38
2019-04-05T20:53:09.302Z,14.37
2019-04-05T20:55:41.054Z,14.33
2019-04-05T20:58:12.840Z,14.26
2019-04-05T21:00:44.368Z,14.22
2019-04-05T21:03:16.231Z,14.18
2019-04-05T21:05:47.828Z,14.17
2019-04-05T21:08:19.621Z,14.07
2019-04-05T21:10:51.020Z,14.09
2019-04-05T21:13:22.754Z,14.06
2019-04-05T21:15:54.409Z,14.02
2019-04-05T21:18:25.880Z,13.96
2019-04-05T21:20:57.617Z,13.92
2019-04-05T21:23:29.501Z,13.90
2019-04-05T21:26:01.527Z,13.80
2019-04-05T21:28:33.075Z,13.79
2019-04-05T21:31:04.735Z,13.71
2019-04-05T21:33:36.284Z,13.66
2019-04-05T21:36:08.239Z,13.62
2019-04-05T21:38:39.920Z,13.51
2019-04-05T21:41:13.183Z,13.48
2019-04-05T21:43:44.886Z,13.45
2019-04-05T21:46:16.943Z,13.43
2019-04-05T21:48:48.827Z,13.41
2019-04-05T21:51:24.705Z,13.36
2019-04-05T21:53:56.432Z,13.29
2019-04-05T21:56:27.836Z,13.27
2019-04-05T21:58:59.671Z,13.27
2019-04-05T22:01:31.265Z,13.26
2019-04-05T22:04:05.201Z,13.21
2019-04-05T22:06:37.113Z,13.08
2019-04-05T22:09:09.338Z,13.08
2019-04-05T22:11:41.216Z,13.05
2019-04-05T22:14:13.217Z,13.07
2019-04-05T22:16:44.846Z,12.98
2019-04-05T22:19:16.691Z,12.95
2019-04-05T22:21:49.228Z,12.98
2019-04-05T22:24:20.893Z,12.91
2019-04-05T22:26:52.370Z,12.95
2019-04-05T22:29:23.835Z,12.84
2019-04-05T22:31:55.547Z,12.78
2019-04-05T22:34:27.324Z,12.73
2019-04-05T22:36:59.196Z,12.75
2019-04-05T22:39:30.993Z,12.71
2019-04-05T22:42:05.704Z,12.64
2019-04-05T22:44:38.981Z,12.67
2019-04-05T22:47:08.180Z,12.55
2019-04-05T22:49:38.371Z,12.55
2019-04-05T22:52:08.577Z,12.56
2019-04-05T22:54:38.966Z,12.54
2019-04-05T22:57:09.413Z,12.48
2019-04-05T22:59:39.741Z,12.43
2019-04-05T23:02:10.143Z,12.49
2019-04-05T23:04:40.605Z,12.53
2019-04-05T23:07:10.906Z,12.43
2019-04-05T23:09:41.119Z,12.52
2019-04-05T23:12:11.326Z,12.44
2019-04-05T23:14:41.608Z,12.32
2019-04-05T23:17:12.036Z,12.32
2019-04-05T23:19:42.324Z,12.36
2019-04-05T23:22:12.515Z,12.37
2019-04-05T23:24:43.114Z,12.21
2019-04-05T23:27:13.444Z,12.13
2019-04-05T23:29:43.669Z,12.22
2019-04-05T23:32:14.190Z,12.23
2019-04-05T23:34:44.501Z,12.07
2019-04-05T23:37:14.797Z,11.96
2019-04-05T23:39:45.391Z,12.00
2019-04-05T23:42:15.779Z,12.02
2019-04-05T23:44:46.327Z,11.95
2019-04-05T23:47:16.788Z,11.97
2019-04-05T23:49:47.169Z,11.80
2019-04-05T23:52:17.554Z,11.73
2019-04-05T23:54:47.707Z,11.65
2019-04-05T23:57:17.948Z,11.80
2019-04-05T23:59:49.301Z,11.70
